createdAt,value
2023-02-12T00:00:57.692Z,6.82
2023-02-12T00:03:25.462Z,6.62
2023-02-12T00:05:53.483Z,6.62
2023-02-12T00:08:21.366Z,6.49
2023-02-12T00:10:49.222Z,6.67
2023-02-12T00:13:18.306Z,6.59
2023-02-12T00:15:46.432Z,6.47
2023-02-12T00:18:14.235Z,6.67
2023-02-12T00:20:42.049Z,6.45
2023-02-12T00:23:11.352Z,6.64
2023-02-12T00:25:42.530Z,6.79
2023-02-12T00:28:10.434Z,6.80
2023-02-12T00:30:39.775Z,6.88
2023-02-12T00:33:07.471Z,7.11
2023-02-12T00:35:35.291Z,6.94
2023-02-12T00:38:03.116Z,7.14
2023-02-12T00:40:31.355Z,7.26
2023-02-12T00:42:59.204Z,7.34
2023-02-12T00:45:27.133Z,7.40
2023-02-12T00:47:56.191Z,7.28
2023-02-12T00:50:24.394Z,7.09
2023-02-12T00:52:52.166Z,7.01
2023-02-12T00:55:20.359Z,7.02
2023-02-12T00:57:48.409Z,6.77
2023-02-12T01:00:17.201Z,6.79
2023-02-12T01:02:45.067Z,6.68
2023-02-12T01:05:15.476Z,6.56
2023-02-12T01:07:43.249Z,6.67
2023-02-12T01:10:11.399Z,6.58
2023-02-12T01:12:39.150Z,6.73
2023-02-12T01:15:07.447Z,6.72
2023-02-12T01:17:35.229Z,6.77
2023-02-12T01:20:05.754Z,6.79
2023-02-12T01:22:35.212Z,6.78
2023-02-12T01:25:03.073Z,6.60
2023-02-12T01:27:30.935Z,6.61
2023-02-12T01:29:58.639Z,6.52
2023-02-12T01:32:26.504Z,6.43
2023-02-12T01:34:54.375Z,6.34
2023-02-12T01:37:22.143Z,6.60
2023-02-12T01:39:51.195Z,6.61
2023-02-12T01:42:19.684Z,6.69
2023-02-12T01:45:37.315Z,6.73
2023-02-12T01:48:05.846Z,6.63
2023-02-12T01:50:33.676Z,6.77
2023-02-12T01:53:01.456Z,6.79
2023-02-12T01:55:30.713Z,6.66
2023-02-12T01:57:58.445Z,6.57
2023-02-12T02:00:26.854Z,6.54
2023-02-12T02:02:58.570Z,6.62
2023-02-12T02:05:39.180Z,6.48
2023-02-12T02:08:07.035Z,6.11
2023-02-12T02:10:36.191Z,6.05
2023-02-12T02:13:22.120Z,5.94
2023-02-12T02:15:56.036Z,6.10
2023-02-12T02:18:28.169Z,5.89
2023-02-12T02:21:17.642Z,5.78
2023-02-12T02:24:06.811Z,5.99
2023-02-12T02:27:07.102Z,5.79
2023-02-12T02:30:05.525Z,5.96
2023-02-12T02:32:39.751Z,5.75
2023-02-12T02:35:14.024Z,6.06
2023-02-12T02:37:48.994Z,5.97
2023-02-12T02:40:20.888Z,6.11
2023-02-12T02:42:54.870Z,6.13
2023-02-12T02:45:28.154Z,6.02
2023-02-12T02:48:01.412Z,6.01
2023-02-12T02:50:32.566Z,6.25
2023-02-12T02:53:05.706Z,6.23
2023-02-12T02:55:38.900Z,5.97
2023-02-12T02:58:13.169Z,5.96
2023-02-12T03:00:45.349Z,5.89
2023-02-12T03:03:21.989Z,5.64
2023-02-12T03:05:54.272Z,5.71
2023-02-12T03:08:27.838Z,5.83
2023-02-12T03:11:00.918Z,5.99
2023-02-12T03:13:35.564Z,6.10
2023-02-12T03:16:08.018Z,5.94
2023-02-12T03:18:43.501Z,5.85
2023-02-12T03:21:17.039Z,6.13
2023-02-12T03:23:48.354Z,6.18
2023-02-12T03:26:22.595Z,6.51
2023-02-12T03:28:50.452Z,6.39
2023-02-12T03:31:29.859Z,6.24
2023-02-12T03:34:08.316Z,6.25
2023-02-12T03:36:44.283Z,6.20
2023-02-12T03:39:17.762Z,6.09
2023-02-12T03:41:50.553Z,6.10
2023-02-12T03:44:24.974Z,6.29
2023-02-12T03:47:02.398Z,6.17
2023-02-12T03:49:35.659Z,6.35
2023-02-12T03:52:04.670Z,6.39
2023-02-12T03:54:33.287Z,6.52
2023-02-12T03:57:04.845Z,6.31
2023-02-12T03:59:33.347Z,6.22
2023-02-12T04:02:01.471Z,6.21
2023-02-12T04:04:31.377Z,6.27
2023-02-12T04:06:59.724Z,6.21
2023-02-12T04:09:29.925Z,6.02
2023-02-12T04:12:19.070Z,6.20
2023-02-12T04:14:54.071Z,6.31
2023-02-12T04:17:30.919Z,6.07
2023-02-12T04:20:09.851Z,6.12
2023-02-12T04:22:47.395Z,6.16
2023-02-12T04:25:28.736Z,5.99
2023-02-12T04:28:01.720Z,6.09
2023-02-12T04:30:34.955Z,6.14
2023-02-12T04:33:06.068Z,5.94
2023-02-12T04:35:37.838Z,5.97
2023-02-12T04:38:11.695Z,6.00
2023-02-12T04:40:41.408Z,5.96
2023-02-12T04:43:09.760Z,5.95
2023-02-12T04:45:38.898Z,5.89
2023-02-12T04:48:07.521Z,5.83
2023-02-12T04:50:41.732Z,5.94
2023-02-12T04:53:10.458Z,5.95
2023-02-12T04:55:38.502Z,6.21
2023-02-12T04:58:06.904Z,6.09
2023-02-12T05:00:34.832Z,5.83
2023-02-12T05:03:02.909Z,5.85
2023-02-12T05:05:30.781Z,5.84
2023-02-12T05:07:59.952Z,5.89
2023-02-12T05:10:27.841Z,5.92
2023-02-12T05:12:56.731Z,5.79
2023-02-12T05:15:24.742Z,6.03
2023-02-12T05:17:52.573Z,5.92
2023-02-12T05:20:20.467Z,5.86
2023-02-12T05:22:52.979Z,5.74
2023-02-12T05:25:22.754Z,5.96
2023-02-12T05:27:50.551Z,6.09
2023-02-12T05:30:18.757Z,5.86
2023-02-12T05:32:46.585Z,6.02
2023-02-12T05:35:14.356Z,5.94
2023-02-12T05:37:42.126Z,5.94
2023-02-12T05:40:10.859Z,5.98
2023-02-12T05:42:40.042Z,5.84
2023-02-12T05:45:08.626Z,6.04
2023-02-12T05:47:36.458Z,6.00
2023-02-12T05:50:04.301Z,6.07
2023-02-12T05:52:32.101Z,6.06
2023-02-12T05:54:59.931Z,5.85
2023-02-12T05:57:27.646Z,6.03
2023-02-12T05:59:56.796Z,5.87
2023-02-12T06:02:24.568Z,6.09
2023-02-12T06:04:52.455Z,6.16
2023-02-12T06:07:20.200Z,6.08
2023-02-12T06:09:48.232Z,5.96
2023-02-12T06:12:16.065Z,6.11
2023-02-12T06:14:44.080Z,6.02
2023-02-12T06:17:13.313Z,6.01
2023-02-12T06:19:41.077Z,6.07
2023-02-12T06:22:08.862Z,6.03
2023-02-12T06:24:37.213Z,5.75
2023-02-12T06:27:05.112Z,5.80
2023-02-12T06:29:32.942Z,5.87
2023-02-12T06:32:00.697Z,5.54
2023-02-12T06:34:29.997Z,5.71
2023-02-12T06:36:58.136Z,5.61
2023-02-12T06:39:26.035Z,5.59
2023-02-12T06:41:54.531Z,5.72
2023-02-12T06:44:22.348Z,5.80
2023-02-12T06:46:50.318Z,5.88
2023-02-12T06:49:18.127Z,5.79
2023-02-12T06:51:47.310Z,5.96
2023-02-12T06:54:16.446Z,6.16
2023-02-12T06:56:44.261Z,5.95
2023-02-12T06:59:15.696Z,6.10
2023-02-12T07:01:43.968Z,5.91
2023-02-12T07:04:12.221Z,6.02
2023-02-12T07:06:40.197Z,6.00
2023-02-12T07:09:09.299Z,5.94
2023-02-12T07:11:38.729Z,5.89
2023-02-12T07:14:06.828Z,6.12
2023-02-12T07:16:34.740Z,6.20
2023-02-12T07:19:02.484Z,6.21
2023-02-12T07:21:30.759Z,6.28
2023-02-12T07:23:58.515Z,6.34
2023-02-12T07:26:27.618Z,6.50
2023-02-12T07:28:55.322Z,6.39
2023-02-12T07:31:24.848Z,6.55
2023-02-12T07:33:55.201Z,6.55
2023-02-12T07:36:23.583Z,6.47
2023-02-12T07:38:51.572Z,6.16
2023-02-12T07:41:22.240Z,6.20
2023-02-12T07:43:56.178Z,6.23
2023-02-12T07:46:29.727Z,6.26
2023-02-12T07:48:58.684Z,6.37
2023-02-12T07:51:28.780Z,6.35
2023-02-12T07:53:57.038Z,6.29
2023-02-12T07:56:29.574Z,6.18
2023-02-12T07:59:00.857Z,6.31
2023-02-12T08:01:31.087Z,6.40
2023-02-12T08:04:00.590Z,6.25
2023-02-12T08:06:31.245Z,6.03
2023-02-12T08:09:00.957Z,6.04
2023-02-12T08:11:29.829Z,5.80
2023-02-12T08:13:59.977Z,5.71
2023-02-12T08:16:30.387Z,5.97
2023-02-12T08:19:10.495Z,5.97
2023-02-12T08:21:38.723Z,5.86
2023-02-12T08:24:06.924Z,5.68
2023-02-12T08:26:36.825Z,5.93
2023-02-12T08:29:08.040Z,6.12
2023-02-12T08:31:37.618Z,6.03
2023-02-12T08:34:06.453Z,5.62
2023-02-12T08:36:38.432Z,6.10
2023-02-12T08:39:06.364Z,6.02
2023-02-12T08:41:34.217Z,6.16
2023-02-12T08:44:04.075Z,6.10
2023-02-12T08:46:35.556Z,6.10
2023-02-12T08:49:05.708Z,6.22
2023-02-12T08:51:35.875Z,6.05
2023-02-12T08:54:06.943Z,6.03
2023-02-12T08:56:35.924Z,5.94
2023-02-12T08:59:06.342Z,6.59
2023-02-12T09:01:38.996Z,6.65
2023-02-12T09:04:07.135Z,6.67
2023-02-12T09:06:36.695Z,6.34
2023-02-12T09:09:04.783Z,6.25
2023-02-12T09:11:32.592Z,6.51
2023-02-12T09:14:01.686Z,6.22
2023-02-12T09:16:30.826Z,6.45
2023-02-12T09:19:00.483Z,6.39
2023-02-12T09:21:28.372Z,6.67
2023-02-12T09:23:56.200Z,6.37
2023-02-12T09:26:26.723Z,6.60
2023-02-12T09:28:55.346Z,6.76
2023-02-12T09:31:26.670Z,7.06
2023-02-12T09:33:55.665Z,6.80
2023-02-12T09:36:24.881Z,6.81
2023-02-12T09:38:54.163Z,7.07
2023-02-12T09:41:54.084Z,6.89
2023-02-12T09:44:27.752Z,6.85
2023-02-12T09:47:00.717Z,7.14
2023-02-12T09:49:46.698Z,6.94
2023-02-12T09:52:18.212Z,7.27
2023-02-12T09:54:46.393Z,7.02
2023-02-12T09:57:20.255Z,6.69
2023-02-12T09:59:53.739Z,6.98
2023-02-12T10:02:23.035Z,6.82
2023-02-12T10:05:01.139Z,6.99
2023-02-12T10:07:48.946Z,6.97
2023-02-12T10:10:29.413Z,6.72
2023-02-12T10:13:01.372Z,6.92
2023-02-12T10:15:36.400Z,7.06
2023-02-12T10:18:24.896Z,7.11
2023-02-12T10:21:17.269Z,7.18
2023-02-12T10:23:59.280Z,7.83
2023-02-12T10:26:31.357Z,7.89
2023-02-12T10:29:02.440Z,7.97
2023-02-12T10:31:33.296Z,7.46
2023-02-12T10:34:01.089Z,8.04
2023-02-12T10:36:40.786Z,7.82
2023-02-12T10:39:21.202Z,7.61
2023-02-12T10:41:56.130Z,7.74
2023-02-12T10:44:23.880Z,7.86
2023-02-12T10:46:51.715Z,7.72
2023-02-12T10:49:20.807Z,7.59
2023-02-12T10:52:09.627Z,7.82
2023-02-12T10:54:42.032Z,8.26
2023-02-12T10:57:14.526Z,7.93
2023-02-12T10:59:42.995Z,7.70
2023-02-12T11:02:26.818Z,7.60
2023-02-12T11:04:55.521Z,7.83
2023-02-12T11:07:24.180Z,8.43
2023-02-12T11:09:55.039Z,7.90
2023-02-12T11:12:31.663Z,8.34
2023-02-12T11:15:01.858Z,8.58
2023-02-12T11:17:35.138Z,8.40
2023-02-12T11:20:21.397Z,8.09
2023-02-12T11:22:54.945Z,7.95
2023-02-12T11:25:24.863Z,7.89
2023-02-12T11:28:13.642Z,8.07
2023-02-12T11:30:51.326Z,7.77
2023-02-12T11:33:26.081Z,7.96
2023-02-12T11:35:56.945Z,7.98
2023-02-12T11:38:32.515Z,8.12
2023-02-12T11:41:06.079Z,8.15
2023-02-12T11:43:37.201Z,8.51
2023-02-12T11:46:08.545Z,8.51
2023-02-12T11:48:39.365Z,8.48
2023-02-12T11:51:10.532Z,8.52
2023-02-12T11:53:41.579Z,8.69
2023-02-12T11:56:13.117Z,8.90
2023-02-12T11:58:41.691Z,8.76
2023-02-12T12:01:17.426Z,8.91
2023-02-12T12:03:56.272Z,8.95
2023-02-12T12:06:34.057Z,9.15
2023-02-12T12:09:08.017Z,8.70
2023-02-12T12:11:42.656Z,8.75
2023-02-12T12:14:19.168Z,8.93
2023-02-12T12:17:10.934Z,8.88
2023-02-12T12:19:55.713Z,9.03
2023-02-12T12:22:42.845Z,8.72
2023-02-12T12:25:26.179Z,8.53
2023-02-12T12:28:09.201Z,9.07
2023-02-12T12:30:50.620Z,9.80
2023-02-12T12:33:23.246Z,10.35
2023-02-12T12:36:05.664Z,10.44
2023-02-12T12:38:46.231Z,9.64
2023-02-12T12:41:25.601Z,9.41
2023-02-12T12:44:09.389Z,9.43
2023-02-12T12:46:47.943Z,9.97
2023-02-12T12:49:49.265Z,9.64
2023-02-12T12:52:32.949Z,9.68
2023-02-12T12:55:19.456Z,9.60
2023-02-12T12:58:00.444Z,9.91
2023-02-12T13:00:56.929Z,9.89
2023-02-12T13:04:01.280Z,10.01
2023-02-12T13:06:52.705Z,10.11
2023-02-12T13:09:33.374Z,10.03
2023-02-12T13:12:22.498Z,10.79
2023-02-12T13:14:59.700Z,10.62
2023-02-12T13:17:36.884Z,10.50
2023-02-12T13:20:12.515Z,10.04
2023-02-12T13:22:51.484Z,10.25
2023-02-12T13:25:28.126Z,10.36
2023-02-12T13:27:58.456Z,10.71
2023-02-12T13:30:31.509Z,10.79
2023-02-12T13:33:08.181Z,11.06
2023-02-12T13:35:39.098Z,11.36
2023-02-12T13:38:08.695Z,11.27
2023-02-12T13:40:37.178Z,10.70
2023-02-12T13:43:18.940Z,11.03
2023-02-12T13:45:54.062Z,10.78
2023-02-12T13:48:49.233Z,10.88
2023-02-12T13:51:25.561Z,10.87
2023-02-12T13:54:07.678Z,10.79
2023-02-12T13:56:42.352Z,10.88
2023-02-12T13:59:53.801Z,11.40
2023-02-12T14:02:44.508Z,11.54
2023-02-12T14:05:34.827Z,11.26
2023-02-12T14:08:05.971Z,11.55
2023-02-12T14:10:37.547Z,11.41
2023-02-12T14:13:28.112Z,11.33
2023-02-12T14:15:58.825Z,11.23
2023-02-12T14:18:34.165Z,11.53
2023-02-12T14:21:41.698Z,11.33
2023-02-12T14:24:51.845Z,11.38
2023-02-12T14:27:37.377Z,11.48
2023-02-12T14:30:30.741Z,11.71
2023-02-12T14:33:18.739Z,11.60
2023-02-12T14:35:47.443Z,11.61
2023-02-12T14:39:01.286Z,11.88
2023-02-12T14:41:44.040Z,11.58
2023-02-12T14:44:47.356Z,11.63
2023-02-12T14:47:45.457Z,11.87
2023-02-12T14:50:19.044Z,11.36
2023-02-12T14:52:53.969Z,11.45
2023-02-12T14:55:26.109Z,11.67
2023-02-12T14:57:59.552Z,12.21
2023-02-12T15:00:30.821Z,12.15
2023-02-12T15:03:06.574Z,12.16
2023-02-12T15:05:39.706Z,12.38
2023-02-12T15:08:15.083Z,11.98
2023-02-12T15:10:50.316Z,12.09
2023-02-12T15:13:29.510Z,11.60
2023-02-12T15:16:03.660Z,11.65
2023-02-12T15:18:43.922Z,11.75
2023-02-12T15:21:20.998Z,11.21
2023-02-12T15:23:49.644Z,11.75
2023-02-12T15:26:21.353Z,11.33
2023-02-12T15:28:51.710Z,11.62
2023-02-12T15:31:24.642Z,11.48
2023-02-12T15:33:54.509Z,11.34
2023-02-12T15:36:24.321Z,11.47
2023-02-12T15:38:54.774Z,11.61
2023-02-12T15:41:29.500Z,11.71
2023-02-12T15:43:57.617Z,11.40
2023-02-12T15:46:27.149Z,11.30
2023-02-12T15:48:56.333Z,11.47
2023-02-12T15:51:29.980Z,12.08
2023-02-12T15:54:00.642Z,11.99
2023-02-12T15:56:29.260Z,12.17
2023-02-12T15:59:00.125Z,11.79
2023-02-12T16:01:31.785Z,11.13
2023-02-12T16:04:01.051Z,11.38
2023-02-12T16:06:32.513Z,11.46
2023-02-12T16:09:04.771Z,11.29
2023-02-12T16:11:34.276Z,11.26
2023-02-12T16:14:05.453Z,11.41
2023-02-12T16:16:45.980Z,11.27
2023-02-12T16:19:20.228Z,11.25
2023-02-12T16:21:50.313Z,11.37
2023-02-12T16:24:28.083Z,11.35
2023-02-12T16:26:56.238Z,11.22
2023-02-12T16:29:24.375Z,11.31
2023-02-12T16:32:02.417Z,11.16
2023-02-12T16:34:36.526Z,11.14
2023-02-12T16:37:27.127Z,10.97
2023-02-12T16:40:22.404Z,11.09
2023-02-12T16:43:24.257Z,10.93
2023-02-12T16:45:53.321Z,10.99
2023-02-12T16:48:25.763Z,11.01
2023-02-12T16:50:58.776Z,11.05
2023-02-12T16:53:46.886Z,11.00
2023-02-12T16:56:18.134Z,11.00
2023-02-12T16:58:48.374Z,10.99
2023-02-12T17:01:19.252Z,10.88
2023-02-12T17:03:50.476Z,10.73
2023-02-12T17:06:20.314Z,10.94
2023-02-12T17:08:48.091Z,10.86
2023-02-12T17:11:17.732Z,10.57
2023-02-12T17:13:46.465Z,10.52
2023-02-12T17:16:29.477Z,10.01
2023-02-12T17:19:00.052Z,10.19
2023-02-12T17:21:30.655Z,10.23
2023-02-12T17:23:58.470Z,10.24
2023-02-12T17:26:26.381Z,10.14
2023-02-12T17:28:54.145Z,10.15
2023-02-12T17:31:23.870Z,10.34
2023-02-12T17:33:51.896Z,10.30
2023-02-12T17:36:21.113Z,10.19
2023-02-12T17:38:48.802Z,10.35
2023-02-12T17:41:16.624Z,10.25
2023-02-12T17:43:44.395Z,10.13
2023-02-12T17:46:14.122Z,10.06
2023-02-12T17:48:41.893Z,10.12
2023-02-12T17:51:11.787Z,10.12
2023-02-12T17:53:41.556Z,10.02
2023-02-12T17:56:12.279Z,9.95
2023-02-12T17:58:40.122Z,9.98
2023-02-12T18:01:09.501Z,9.91
2023-02-12T18:03:37.890Z,9.82
2023-02-12T18:06:06.894Z,9.52
2023-02-12T18:08:34.966Z,9.54
2023-02-12T18:11:07.570Z,9.33
2023-02-12T18:13:35.422Z,9.41
2023-02-12T18:16:07.168Z,9.42
2023-02-12T18:18:35.303Z,9.28
2023-02-12T18:21:03.148Z,9.43
2023-02-12T18:23:30.827Z,9.34
2023-02-12T18:25:58.631Z,9.45
2023-02-12T18:28:27.816Z,9.58
2023-02-12T18:30:59.704Z,9.50
2023-02-12T18:33:27.967Z,9.38
2023-02-12T18:36:00.122Z,9.34
2023-02-12T18:38:28.259Z,9.31
2023-02-12T18:40:56.368Z,9.38
2023-02-12T18:43:24.906Z,9.41
2023-02-12T18:45:55.206Z,9.38
2023-02-12T18:48:23.221Z,9.30
2023-02-12T18:50:53.112Z,9.15
2023-02-12T18:53:20.818Z,8.83
2023-02-12T18:55:48.639Z,9.20
2023-02-12T18:58:16.368Z,9.25
2023-02-12T19:00:44.115Z,9.35
2023-02-12T19:03:13.195Z,9.33
2023-02-12T19:05:40.984Z,9.14
2023-02-12T19:08:08.728Z,9.10
2023-02-12T19:10:39.696Z,8.94
2023-02-12T19:13:07.601Z,8.65
2023-02-12T19:15:35.371Z,8.60
2023-02-12T19:18:03.200Z,8.50
2023-02-12T19:20:33.691Z,8.50
2023-02-12T19:23:01.484Z,8.49
2023-02-12T19:25:29.248Z,8.60
2023-02-12T19:27:58.507Z,8.57
2023-02-12T19:30:26.267Z,8.47
2023-02-12T19:32:54.106Z,8.43
2023-02-12T19:35:21.907Z,8.47
2023-02-12T19:37:51.064Z,8.20
2023-02-12T19:40:18.947Z,7.95
2023-02-12T19:42:46.815Z,8.12
2023-02-12T19:45:16.160Z,7.98
2023-02-12T19:47:43.935Z,7.79
2023-02-12T19:50:11.960Z,7.74
2023-02-12T19:52:39.752Z,7.66
2023-02-12T19:55:09.414Z,7.90
2023-02-12T19:57:38.564Z,7.91
2023-02-12T20:00:07.763Z,8.03
2023-02-12T20:02:35.594Z,8.12
2023-02-12T20:05:03.360Z,8.03
2023-02-12T20:07:31.136Z,7.74
2023-02-12T20:09:59.716Z,7.71
2023-02-12T20:12:28.817Z,7.78
2023-02-12T20:15:00.968Z,7.56
2023-02-12T20:17:28.669Z,7.42
2023-02-12T20:19:56.831Z,7.49
2023-02-12T20:22:24.721Z,7.43
2023-02-12T20:24:53.606Z,7.42
2023-02-12T20:27:21.415Z,7.54
2023-02-12T20:29:51.089Z,7.83
2023-02-12T20:32:19.288Z,7.91
2023-02-12T20:34:51.106Z,7.48
2023-02-12T20:37:19.203Z,7.51
2023-02-12T20:39:48.046Z,7.40
2023-02-12T20:42:16.021Z,7.41
2023-02-12T20:44:44.191Z,7.27
2023-02-12T20:47:13.739Z,7.26
2023-02-12T20:49:42.901Z,7.27
2023-02-12T20:52:11.152Z,7.34
2023-02-12T20:54:40.087Z,7.61
2023-02-12T20:57:07.931Z,7.69
2023-02-12T20:59:35.773Z,7.82
2023-02-12T21:02:03.856Z,7.85
2023-02-12T21:04:32.939Z,7.93
2023-02-12T21:07:01.174Z,7.99
2023-02-12T21:09:29.429Z,8.19
2023-02-12T21:11:59.221Z,8.28
2023-02-12T21:14:27.270Z,8.23
2023-02-12T21:16:56.888Z,8.17
2023-02-12T21:19:26.586Z,8.08
2023-02-12T21:21:56.860Z,7.90
2023-02-12T21:24:28.144Z,7.81
2023-02-12T21:26:58.704Z,7.78
2023-02-12T21:29:29.191Z,7.79
2023-02-12T21:31:58.253Z,7.52
2023-02-12T21:34:27.026Z,7.62
2023-02-12T21:36:58.477Z,7.49
2023-02-12T21:39:28.850Z,7.42
2023-02-12T21:41:58.475Z,7.39
2023-02-12T21:44:27.354Z,7.34
2023-02-12T21:46:56.082Z,7.18
2023-02-12T21:49:27.310Z,7.02
2023-02-12T21:51:58.012Z,7.02
2023-02-12T21:54:25.744Z,6.88
2023-02-12T21:56:53.521Z,6.99
2023-02-12T21:59:21.292Z,6.76
2023-02-12T22:01:50.717Z,6.57
2023-02-12T22:04:19.453Z,6.56
2023-02-12T22:06:49.176Z,6.51
2023-02-12T22:09:20.996Z,6.53
2023-02-12T22:11:48.825Z,6.79
2023-02-12T22:14:18.421Z,6.90
2023-02-12T22:16:47.772Z,6.65
2023-02-12T22:19:16.277Z,6.38
2023-02-12T22:21:44.819Z,6.21
2023-02-12T22:24:15.307Z,6.23
2023-02-12T22:26:45.284Z,6.35
2023-02-12T22:29:15.398Z,6.49
2023-02-12T22:31:44.799Z,6.42
2023-02-12T22:34:14.681Z,6.60
2023-02-12T22:36:43.461Z,6.48
2023-02-12T22:39:12.861Z,6.42
2023-02-12T22:41:41.938Z,6.36
2023-02-12T22:44:13.099Z,6.30
2023-02-12T22:46:41.085Z,6.18
2023-02-12T22:49:08.982Z,6.17
2023-02-12T22:51:38.924Z,6.29
2023-02-12T22:54:07.295Z,6.24
2023-02-12T22:56:35.024Z,6.09
2023-02-12T22:59:03.281Z,6.14
2023-02-12T23:01:32.690Z,6.03
2023-02-12T23:04:00.580Z,6.24
2023-02-12T23:06:30.302Z,6.05
2023-02-12T23:09:00.784Z,5.92
2023-02-12T23:11:29.651Z,5.89
2023-02-12T23:13:58.028Z,5.94
2023-02-12T23:16:26.027Z,6.30
2023-02-12T23:18:57.442Z,6.27
2023-02-12T23:21:25.941Z,6.26
2023-02-12T23:23:53.728Z,6.38
2023-02-12T23:26:21.493Z,6.45
2023-02-12T23:28:49.516Z,6.13
2023-02-12T23:31:17.424Z,6.19
2023-02-12T23:33:45.227Z,6.23
2023-02-12T23:36:14.575Z,6.15
2023-02-12T23:38:42.332Z,6.29
2023-02-12T23:41:10.284Z,5.93
2023-02-12T23:43:38.174Z,6.00
2023-02-12T23:46:06.305Z,5.95
2023-02-12T23:48:34.073Z,5.80
2023-02-12T23:51:01.877Z,5.95
2023-02-12T23:53:30.963Z,6.07
2023-02-12T23:55:58.801Z,6.31
2023-02-12T23:58:26.523Z,6.68
